sensor_id;sensor_type;location;lat;lon;timestamp;pressure;altitude;pressure_sealevel;temperature;humidity
61740;BME280;47645;45.288;12.038;2022-12-18T00:01:15;1027.164238489685;;;3.766015625;92.82975546029013
61740;BME280;47645;45.288;12.038;2022-12-18T00:11:13;1027.1926264350682;;;3.69453125;92.93467247051764
61740;BME280;47645;45.288;12.038;2022-12-18T00:21:13;1027.306588554463;;;3.8373046875;92.8009420776106
61740;BME280;47645;45.288;12.038;2022-12-18T00:31:14;1027.3600919011958;;;3.6333984375;91.81171708764708
61740;BME280;47645;45.288;12.038;2022-12-18T00:41:14;1027.371890526332;;;3.669140625;91.15601809104969
61740;BME280;47645;45.288;12.038;2022-12-18T00:51:13;1027.5089861690712;;;3.475390625;91.70385957563447
61740;BME280;47645;45.288;12.038;2022-12-18T01:01:13;1027.5001024521118;;;3.6181640625;90.9834756108007
61740;BME280;47645;45.288;12.038;2022-12-18T01:11:16;1027.5271013402114;;;3.57734375;90.07863088479307
61740;BME280;47645;45.288;12.038;2022-12-18T01:21:15;1027.5994164550202;;;3.3888671875;90.66571893354347
61740;BME280;47645;45.288;12.038;2022-12-18T01:31:18;1027.7365066840882;;;3.434765625;90.29548932930848
61740;BME280;47645;45.288;12.038;2022-12-18T01:41:17;1027.8877741809235;;;3.2615234375;91.13294617572416
61740;BME280;47645;45.288;12.038;2022-12-18T01:51:16;1028.01654115571;;;3.2001953125;90.83296539979206
61740;BME280;47645;45.288;12.038;2022-12-18T02:01:16;1028.2156945434149;;;3.144140625;92.14576815972224
61740;BME280;47645;45.288;12.038;2022-12-18T02:11:21;1028.303429916861;;;2.81796875;92.97154540845581
61740;BME280;47645;45.288;12.038;2022-12-18T02:21:24;1028.446878370573;;;2.6294921875;93.75032631294985
61740;BME280;47645;45.288;12.038;2022-12-18T02:31:21;1028.5367828151195;;;3.0015625;95.00260953638995
61740;BME280;47645;45.288;12.038;2022-12-18T02:41:18;1028.6262426333412;;;2.812890625;93.73740556170166
61740;BME280;47645;45.288;12.038;2022-12-18T02:51:24;1028.7552977542557;;;2.9607421875;92.73639553453756
61740;BME280;47645;45.288;12.038;2022-12-18T03:01:24;1028.9254637120953;;;3.021875;91.89100474278519
61740;BME280;47645;45.288;12.038;2022-12-18T03:12:28;1028.9536473538556;;;3.0880859375;90.52473643174147
61740;BME280;47645;45.288;12.038;2022-12-18T03:21:26;1028.9783615035233;;;3.2767578125;87.3272662565566
61740;BME280;47645;45.288;12.038;2022-12-18T03:31:21;1029.0905317270142;;;3.2666015625;85.73704654081688
61740;BME280;47645;45.288;12.038;2022-12-18T03:41:24;1029.056364370552;;;3.25625;84.6455764590784
61740;BME280;47645;45.288;12.038;2022-12-18T03:51:24;1029.2920255343315;;;3.2919921875;84.36686220742794
61740;BME280;47645;45.288;12.038;2022-12-18T04:01:23;1029.3170803217743;;;3.1390625;84.53505804118772
61740;BME280;47645;45.288;12.038;2022-12-18T04:11:20;1029.3490386259289;;;3.2818359375;83.58120219512847
61740;BME280;47645;45.288;12.038;2022-12-18T04:21:21;1029.518171923515;;;3.22578125;83.51081911735753
61740;BME280;47645;45.288;12.038;2022-12-18T04:31:21;1029.7347807306824;;;3.016796875;83.78644214924006
61740;BME280;47645;45.288;12.038;2022-12-18T04:41:21;1029.8734473478653;;;3.103515625;83.3825680329166
61740;BME280;47645;45.288;12.038;2022-12-18T04:51:22;1029.9496802796787;;;2.8537109375;84.78250510769273
61740;BME280;47645;45.288;12.038;2022-12-18T05:01:22;1030.0395654720717;;;2.5990234375;86.28057010272134
61740;BME280;47645;45.288;12.038;2022-12-18T05:11:22;1030.078737061226;;;2.548046875;86.37311152405987
61740;BME280;47645;45.288;12.038;2022-12-18T05:21:23;1030.223215456239;;;2.48671875;86.23983487881189
61740;BME280;47645;45.288;12.038;2022-12-18T05:31:23;1030.3851366969277;;;2.3083984375;87.01277222178874
61740;BME280;47645;45.288;12.038;2022-12-18T05:41:23;1030.4197036868752;;;2.2728515625;87.33920042421174
61740;BME280;47645;45.288;12.038;2022-12-18T05:51:24;1030.571492105317;;;2.2931640625;87.35128575919448
61740;BME280;47645;45.288;12.038;2022-12-18T06:01:25;1030.590625613093;;;2.3849609375;90.85306614506808
61740;BME280;47645;45.288;12.038;2022-12-18T06:11:26;1030.9096163812856;;;2.216796875;89.03745840169505
61740;BME280;47645;45.288;12.038;2022-12-18T06:21:25;1030.9997657218748;;;2.4154296875;92.59471121891278
61740;BME280;47645;45.288;12.038;2022-12-18T06:31:25;1030.9327923772075;;;2.0078125;89.57653974951357
61740;BME280;47645;45.288;12.038;2022-12-18T06:41:25;1031.0838144065006;;;2.002734375;89.90604964596363
61740;BME280;47645;45.288;12.038;2022-12-18T06:51:26;1031.3757608487479;;;1.905859375;90.04513037352794
61740;BME280;47645;45.288;12.038;2022-12-18T07:01:27;1031.5179778248673;;;2.023046875;90.29960579941144
61740;BME280;47645;45.288;12.038;2022-12-18T07:11:26;1031.4597667850983;;;2.109765625;88.92192627819273
61740;BME280;47645;45.288;12.038;2022-12-18T07:21:26;1031.638479530367;;;2.1962890625;88.85528892930994
61740;BME280;47645;45.288;12.038;2022-12-18T07:31:27;1031.694409063486;;;2.32890625;88.49814188208852
61740;BME280;47645;45.288;12.038;2022-12-18T07:41:27;1031.8427738576577;;;2.4359375;88.4833074839348
61740;BME280;47645;45.288;12.038;2022-12-18T07:51:27;1032.0553147538835;;;2.578515625;88.27785954018685
61740;BME280;47645;45.288;12.038;2022-12-18T08:01:28;1032.113422324438;;;2.8384765625;86.80861579981034
61740;BME280;47645;45.288;12.038;2022-12-18T08:11:28;1032.3142179271617;;;3.1544921875;85.1804401397497
61740;BME280;47645;45.288;12.038;2022-12-18T08:21:30;1032.3951321912573;;;3.24609375;84.30786625039715
61740;BME280;47645;45.288;12.038;2022-12-18T08:31:30;1032.4458140943746;;;3.6181640625;83.45424705692193
61740;BME280;47645;45.288;12.038;2022-12-18T08:41:29;1032.640475544831;;;3.79140625;81.83545173272631
61740;BME280;47645;45.288;12.038;2022-12-18T08:51:29;1032.904384476638;;;4.0767578125;79.55518598334483
61740;BME280;47645;45.288;12.038;2022-12-18T09:01:30;1033.0484199215798;;;4.5203125;78.95244827506801
61740;BME280;47645;45.288;12.038;2022-12-18T09:11:31;1033.199223290944;;;4.7138671875;78.81305370564431
61740;BME280;47645;45.288;12.038;2022-12-18T09:21:32;1033.3182948230126;;;4.9279296875;76.96086340655737
61740;BME280;47645;45.288;12.038;2022-12-18T09:31:31;1033.3424221949806;;;5.228515625;74.9848286518341
61740;BME280;47645;45.288;12.038;2022-12-18T09:41:39;1033.2896795190902;;;5.666796875;75.16701867664852
61740;BME280;47645;45.288;12.038;2022-12-18T09:51:36;1033.2244355265566;;;6.0337890625;73.27827325733739
61740;BME280;47645;45.288;12.038;2022-12-18T10:01:32;1033.1408719354451;;;6.3447265625;70.4141145569766
61740;BME280;47645;45.288;12.038;2022-12-18T10:11:39;1033.1323238679913;;;6.7982421875;67.74550118706425
61740;BME280;47645;45.288;12.038;2022-12-18T10:21:41;1033.0118074487236;;;6.9818359375;65.28898743892978
61740;BME280;47645;45.288;12.038;2022-12-18T10:31:34;1032.89811619311;;;7.51171875;65.74875844996227
61740;BME280;47645;45.288;12.038;2022-12-18T10:41:34;1032.9147856895859;;;7.8482421875;64.00398729096509
61740;BME280;47645;45.288;12.038;2022-12-18T10:51:36;1032.8341336881372;;;7.8533203125;63.71161157265259
61740;BME280;47645;45.288;12.038;2022-12-18T11:01:48;1032.7258963101738;;;8.2916015625;61.13593455062591
61740;BME280;47645;45.288;12.038;2022-12-18T11:11:37;1032.8029967094612;;;8.2966796875;60.852045842335755
61740;BME280;47645;45.288;12.038;2022-12-18T11:21:39;1032.973794977238;;;8.5515625;60.677351459446115
61740;BME280;47645;45.288;12.038;2022-12-18T11:31:37;1032.7956332570411;;;8.80625;60.279283103451334
61740;BME280;47645;45.288;12.038;2022-12-18T11:42:14;1032.7189371022644;;;8.898046875;60.167033900228745
61740;BME280;47645;45.288;12.038;2022-12-18T11:51:43;1032.7038375464927;;;8.994921875;58.5317232616148
61740;BME280;47645;45.288;12.038;2022-12-18T12:01:46;1032.7657264274471;;;9.229296875;57.09530410753076
61740;BME280;47645;45.288;12.038;2022-12-18T12:11:46;1032.690388251684;;;8.9591796875;56.309426850282776
61740;BME280;47645;45.288;12.038;2022-12-18T12:21:41;1032.651564769885;;;9.234375;57.12871715713218
61740;BME280;47645;45.288;12.038;2022-12-18T12:31:54;1032.6595216164687;;;9.6115234375;58.63835225805847
61740;BME280;47645;45.288;12.038;2022-12-18T12:51:44;1032.5690250838998;;;9.6166015625;55.3900842659575
61740;BME280;47645;45.288;12.038;2022-12-18T13:01:49;1032.5872010124615;;;9.7390625;55.02042287345279
61740;BME280;47645;45.288;12.038;2022-12-18T13:21:53;1032.6187967986998;;;9.8103515625;54.05818627690849
61740;BME280;47645;45.288;12.038;2022-12-18T13:32:01;1032.6919468310493;;;9.7287109375;54.27836919012036
61740;BME280;47645;45.288;12.038;2022-12-18T13:41:45;1032.5666409194462;;;9.6830078125;54.54425019149532
61740;BME280;47645;45.288;12.038;2022-12-18T13:51:48;1032.5812980978587;;;9.4689453125;55.50018304679259
61740;BME280;47645;45.288;12.038;2022-12-18T14:01:47;1032.5335519851185;;;9.336328125;57.17757472100146
61740;BME280;47645;45.288;12.038;2022-12-18T14:11:47;1032.502440107027;;;9.2599609375;62.80033787114728
61740;BME280;47645;45.288;12.038;2022-12-18T14:21:47;1032.4773256800609;;;9.2140625;64.48791941067324
61740;BME280;47645;45.288;12.038;2022-12-18T14:32:04;1032.6164392956964;;;9.0611328125;71.69065821152996
61740;BME280;47645;45.288;12.038;2022-12-18T14:41:48;1032.6458757276146;;;8.7859375;72.68308152395372
61740;BME280;47645;45.288;12.038;2022-12-18T14:51:49;1032.8530327554672;;;8.5208984375;75.02905655349882
61740;BME280;47645;45.288;12.038;2022-12-18T15:01:55;1032.8752265484825;;;8.3169921875;75.40903132091634
61740;BME280;47645;45.288;12.038;2022-12-18T15:11:49;1032.9111344950197;;;8.0978515625;79.46969914816151
61740;BME280;47645;45.288;12.038;2022-12-18T15:21:49;1033.040473238237;;;7.7666015625;80.9825538876439
61740;BME280;47645;45.288;12.038;2022-12-18T15:32:00;1033.1358359805001;;;7.5423828125;81.80269186220306
61740;BME280;47645;45.288;12.038;2022-12-18T15:51:53;1033.2281231102527;;;7.037890625;83.57499402572707
61740;BME280;47645;45.288;12.038;2022-12-18T16:01:51;1033.1962297641217;;;6.747265625;84.88084119342147
61740;BME280;47645;45.288;12.038;2022-12-18T16:11:51;1033.260945122143;;;6.5435546875;85.65252123089755
61740;BME280;47645;45.288;12.038;2022-12-18T16:21:54;1033.324922755956;;;6.3498046875;86.50892263949055
61740;BME280;47645;45.288;12.038;2022-12-18T16:31:52;1033.3919551444167;;;6.0287109375;87.67212937381576
61740;BME280;47645;45.288;12.038;2022-12-18T16:41:54;1033.5040767359894;;;5.8248046875;88.39221953745603
61740;BME280;47645;45.288;12.038;2022-12-18T16:51:54;1033.5265544593715;;;5.7076171875;88.57105965415393
61740;BME280;47645;45.288;12.038;2022-12-18T17:01:55;1033.552789474541;;;5.4884765625;89.06267680718776
61740;BME280;47645;45.288;12.038;2022-12-18T17:11:58;1033.600137844958;;;5.3560546875;89.47433170306785
61740;BME280;47645;45.288;12.038;2022-12-18T17:21:56;1033.6302375112093;;;5.1724609375;89.69729261457248
61740;BME280;47645;45.288;12.038;2022-12-18T17:31:55;1033.6783455435552;;;5.07578125;90.02893202704448
61740;BME280;47645;45.288;12.038;2022-12-18T17:41:56;1033.70192002343;;;4.9126953125;90.37109887248099
61740;BME280;47645;45.288;12.038;2022-12-18T17:51:56;1033.762591127689;;;4.8158203125;90.68592102148877
61740;BME280;47645;45.288;12.038;2022-12-18T18:01:56;1033.8728178549952;;;4.6986328125;90.75443520370118
61740;BME280;47645;45.288;12.038;2022-12-18T18:21:57;1033.9145488825266;;;4.5048828125;90.91313191031186
61740;BME280;47645;45.288;12.038;2022-12-18T18:31:58;1033.9241405228804;;;4.3927734375;91.03055651939323
61740;BME280;47645;45.288;12.038;2022-12-18T18:41:58;1034.0723878278875;;;4.2806640625;91.15271684737125
61740;BME280;47645;45.288;12.038;2022-12-18T18:51:58;1034.0645398091197;;;4.1685546875;90.98125413489754
61740;BME280;47645;45.288;12.038;2022-12-18T19:01:58;1034.1221232094356;;;4.015625;91.51206726317955
61740;BME280;47645;45.288;12.038;2022-12-18T19:21:58;1034.117689940872;;;3.86796875;91.49874937723129
61740;BME280;47645;45.288;12.038;2022-12-18T19:31:59;1034.0853158164123;;;3.806640625;91.42023408891107
61740;BME280;47645;45.288;12.038;2022-12-18T19:41:59;1034.0823279230706;;;3.7505859375;91.14709719998505
61740;BME280;47645;45.288;12.038;2022-12-18T19:51:59;1034.1136399236757;;;3.6384765625;91.2798530820077
61740;BME280;47645;45.288;12.038;2022-12-18T20:01:59;1034.1303197142472;;;3.572265625;91.29194447958271
61740;BME280;47645;45.288;12.038;2022-12-18T20:12:00;1034.220978112522;;;3.4857421875;91.35361942648437
61740;BME280;47645;45.288;12.038;2022-12-18T20:22:00;1034.2745998145429;;;3.3837890625;91.61734080799128
61740;BME280;47645;45.288;12.038;2022-12-18T20:32:00;1034.3437247213942;;;3.3736328125;91.1253768971724
61740;BME280;47645;45.288;12.038;2022-12-18T20:42:01;1034.3889273799698;;;3.220703125;91.65502194264191
61740;BME280;47645;45.288;12.038;2022-12-18T20:52:02;1034.419346865537;;;3.220703125;91.29695143145565
61740;BME280;47645;45.288;12.038;2022-12-18T21:02:01;1034.3847272603782;;;3.1595703125;91.17634833305803
61740;BME280;47645;45.288;12.038;2022-12-18T21:12:36;1034.5391242964997;;;3.123828125;90.84445340592755
61740;BME280;47645;45.288;12.038;2022-12-18T21:22:03;1034.5842443529682;;;3.037109375;91.07261114686993
61740;BME280;47645;45.288;12.038;2022-12-18T21:32:03;1034.6259685465063;;;3.006640625;90.92141871491764
61740;BME280;47645;45.288;12.038;2022-12-18T21:52:03;1034.6426562534348;;;2.899609375;90.59827575438963
61740;BME280;47645;45.288;12.038;2022-12-18T22:02:05;1034.853828966781;;;1.9822265625;94.53527569791736
61740;BME280;47645;45.288;12.038;2022-12-18T22:12:04;1034.9398438468775;;;1.936328125;97.57158822918056
61740;BME280;47645;45.288;12.038;2022-12-18T22:22:04;1034.8411503873597;;;2.5734375;92.79368197597942
61740;BME280;47645;45.288;12.038;2022-12-18T22:32:06;1034.8439619014835;;;2.6703125;91.59267470384172
61740;BME280;47645;45.288;12.038;2022-12-18T22:42:05;1034.8240011203352;;;2.685546875;90.97381254961716
61740;BME280;47645;45.288;12.038;2022-12-18T22:52:06;1034.8193693049504;;;2.6498046875;90.82335283096842
61740;BME280;47645;45.288;12.038;2022-12-18T23:02:05;1034.6560504393135;;;2.553125;90.97940452739243
61740;BME280;47645;45.288;12.038;2022-12-18T23:12:06;1034.5861526619892;;;2.4919921875;90.90718272559545
61740;BME280;47645;45.288;12.038;2022-12-18T23:22:06;1034.6196683208634;;;2.441015625;90.86210662571351
61740;BME280;47645;45.288;12.038;2022-12-18T23:32:06;1034.7107840876413;;;2.237109375;92.00696478296024
61740;BME280;47645;45.288;12.038;2022-12-18T23:42:06;1034.6441182734159;;;2.2779296875;91.26257113051014
61740;BME280;47645;45.288;12.038;2022-12-18T23:52:07;1034.6405951994268;;;1.905859375;93.5395786827801
